Time,TemperatureF,DewpointF,PressureIn,WindDirection,WindDirectionDegrees,WindSpeedMPH,WindSpeedGustMPH,Humidity,HourlyPrecipIn,Conditions,Clouds,dailyrainin,SoftwareType,DateUTC
2013-04-29 00:01:00,52.9,47.2,28.82,WSW,256,0.0,0.0,81,0.00,,---,0.00,VWS V14.01,2013-04-29 05:01:00,
2013-04-29 00:06:00,52.7,48.0,28.82,WSW,256,0.0,0.0,84,0.00,,---,0.00,VWS V14.01,2013-04-29 05:06:00,
2013-04-29 00:11:00,52.5,48.8,28.82,WSW,256,0.0,0.0,87,0.00,,---,0.00,VWS V14.01,2013-04-29 05:11:00,
2013-04-29 00:16:00,52.5,48.8,28.82,West,261,0.0,0.0,87,0.00,,---,0.00,VWS V14.01,2013-04-29 05:16:00,
2013-04-29 00:20:00,52.3,48.6,28.82,West,261,0.0,0.0,87,0.00,,---,0.00,VWS V14.01,2013-04-29 05:20:00,
2013-04-29 00:25:00,52.3,49.5,28.82,West,261,0.0,0.0,90,0.00,,---,0.00,VWS V14.01,2013-04-29 05:25:00,
2013-04-29 00:30:00,52.3,49.5,28.82,West,261,0.0,0.0,90,0.00,,---,0.00,VWS V14.01,2013-04-29 05:30:00,
2013-04-29 00:35:00,52.2,48.4,28.82,West,261,0.0,0.0,87,0.00,,---,0.00,VWS V14.01,2013-04-29 05:35:00,
2013-04-29 00:40:00,52.2,48.4,28.82,West,261,0.0,0.0,87,0.00,,---,0.00,VWS V14.01,2013-04-29 05:40:00,
2013-04-29 00:45:00,52.0,49.1,28.82,West,261,0.0,0.0,90,0.00,,---,0.00,VWS V14.01,2013-04-29 05:45:00,
2013-04-29 00:50:00,51.8,49.0,28.82,West,261,0.0,0.0,90,0.00,,---,0.00,VWS V14.01,2013-04-29 05:50:00,
2013-04-29 00:55:00,51.8,49.8,28.82,West,261,0.0,0.0,93,0.00,,---,0.00,VWS V14.01,2013-04-29 05:55:00,
2013-04-29 01:00:00,51.8,50.7,28.82,West,261,0.0,0.0,96,0.00,,---,0.00,VWS V14.01,2013-04-29 06:00:00,
2013-04-29 01:05:00,51.8,51.5,28.82,SW,233,2.2,3.1,99,0.00,,---,0.00,VWS V14.01,2013-04-29 06:05:00,
2013-04-29 01:10:00,51.8,51.8,28.82,SW,233,0.0,0.0,100,0.00,,---,0.00,VWS V14.01,2013-04-29 06:10:00,
2013-04-29 01:15:00,51.6,51.6,28.82,SW,233,0.0,0.0,100,0.00,,---,0.00,VWS V14.01,2013-04-29 06:15:00,
2013-04-29 01:20:00,51.8,51.8,28.82,WNW,299,0.0,0.0,100,0.00,,---,0.00,VWS V14.01,2013-04-29 06:20:00,
2013-04-29 01:25:00,51.6,51.6,28.82,NNW,337,0.0,0.0,100,0.00,,---,0.00,VWS V14.01,2013-04-29 06:25:00,
2013-04-29 01:30:00,51.6,51.6,28.82,NNW,337,0.0,0.0,100,0.00,,---,0.00,VWS V14.01,2013-04-29 06:30:00,
2013-04-29 01:35:00,51.8,51.8,28.82,NNW,337,0.0,0.0,100,0.00,,---,0.00,VWS V14.01,2013-04-29 06:35:00,
2013-04-29 01:40:00,51.8,51.8,28.82,NNE,29,0.0,0.0,100,0.00,,---,0.00,VWS V14.01,2013-04-29 06:40:00,
2013-04-29 01:45:00,51.8,51.8,28.79,NNE,29,0.0,0.0,100,0.00,,---,0.00,VWS V14.01,2013-04-29 06:45:00,
2013-04-29 01:50:00,51.8,51.8,28.79,NNE,29,0.0,0.0,100,0.00,,---,0.00,VWS V14.01,2013-04-29 06:50:00,
2013-04-29 01:55:00,51.8,51.8,28.79,NNE,29,0.0,0.0,100,0.00,,---,0.00,VWS V14.01,2013-04-29 06:55:00,
2013-04-29 02:00:00,52.0,52.0,28.79,NNE,29,0.0,0.0,100,0.00,,---,0.00,VWS V14.01,2013-04-29 07:00:00,
2013-04-29 02:05:00,52.0,52.0,28.79,NNE,29,0.0,0.0,100,0.00,,---,0.00,VWS V14.01,2013-04-29 07:05:00,
2013-04-29 02:10:00,52.2,52.2,28.79,NNE,29,0.0,0.0,100,0.00,,---,0.00,VWS V14.01,2013-04-29 07:10:00,
2013-04-29 02:15:00,52.2,52.2,28.79,NNE,29,0.0,0.0,100,0.00,,---,0.00,VWS V14.01,2013-04-29 07:15:00,
2013-04-29 02:20:00,52.0,52.0,28.79,NNE,29,0.0,0.0,100,0.00,,---,0.00,VWS V14.01,2013-04-29 07:20:00,
2013-04-29 02:25:00,52.0,52.0,28.79,NNE,29,0.0,0.0,100,0.00,,---,0.00,VWS V14.01,2013-04-29 07:25:00,
2013-04-29 02:30:00,52.0,52.0,28.82,NNE,29,0.0,0.0,100,0.00,,---,0.00,VWS V14.01,2013-04-29 07:30:00,
2013-04-29 02:35:00,51.8,51.8,28.82,NNE,29,0.0,0.0,100,0.00,,---,0.00,VWS V14.01,2013-04-29 07:35:00,
2013-04-29 02:40:00,51.6,51.6,28.82,NNE,29,0.0,0.0,100,0.00,,---,0.00,VWS V14.01,2013-04-29 07:40:00,
2013-04-29 02:45:00,51.6,51.6,28.82,NNE,29,0.0,0.0,100,0.00,,---,0.00,VWS V14.01,2013-04-29 07:45:00,
2013-04-29 02:50:00,51.6,51.6,28.82,NNE,29,0.0,0.0,100,0.00,,---,0.00,VWS V14.01,2013-04-29 07:50:00,
2013-04-29 02:55:00,51.6,51.6,28.82,NNE,29,0.0,0.0,100,0.00,,---,0.00,VWS V14.01,2013-04-29 07:55:00,
2013-04-29 03:00:00,51.6,51.6,28.82,NNE,29,0.0,0.0,100,0.00,,---,0.00,VWS V14.01,2013-04-29 08:00:00,
2013-04-29 03:05:00,51.8,51.8,28.82,WSW,245,0.0,0.0,100,0.00,,---,0.00,VWS V14.01,2013-04-29 08:05:00,
2013-04-29 03:10:00,51.6,51.6,28.82,WSW,245,0.0,0.0,100,0.00,,---,0.00,VWS V14.01,2013-04-29 08:10:00,
2013-04-29 03:15:00,51.6,51.6,28.82,WSW,245,0.0,0.0,100,0.00,,---,0.00,VWS V14.01,2013-04-29 08:15:00,
2013-04-29 03:20:00,51.4,51.4,28.82,WSW,245,0.0,0.0,100,0.00,,---,0.00,VWS V14.01,2013-04-29 08:20:00,
2013-04-29 03:25:00,51.3,51.3,28.82,WSW,245,0.0,0.0,100,0.00,,---,0.00,VWS V14.01,2013-04-29 08:25:00,
2013-04-29 03:30:00,51.1,51.1,28.82,WSW,245,0.0,0.0,100,0.00,,---,0.00,VWS V14.01,2013-04-29 08:30:00,
2013-04-29 03:35:00,50.9,50.9,28.82,WSW,245,0.0,0.0,100,0.00,,---,0.00,VWS V14.01,2013-04-29 08:35:00,
2013-04-29 03:40:00,50.5,50.5,28.82,WSW,245,0.0,0.0,100,0.00,,---,0.00,VWS V14.01,2013-04-29 08:40:00,
2013-04-29 03:45:00,50.5,50.5,28.82,WSW,245,0.0,0.0,100,0.00,,---,0.00,VWS V14.01,2013-04-29 08:45:00,
2013-04-29 03:50:00,50.4,50.4,28.82,WSW,245,0.0,0.0,100,0.00,,---,0.00,VWS V14.01,2013-04-29 08:50:00,
2013-04-29 03:55:00,50.2,50.2,28.82,WSW,245,0.0,0.0,100,0.00,,---,0.00,VWS V14.01,2013-04-29 08:55:00,
2013-04-29 04:00:00,50.0,50.0,28.82,WSW,245,0.0,0.0,100,0.00,,---,0.00,VWS V14.01,2013-04-29 09:00:00,
2013-04-29 04:05:00,50.0,50.0,28.82,WSW,245,0.0,0.0,100,0.00,,---,0.00,VWS V14.01,2013-04-29 09:05:00,
2013-04-29 04:10:00,50.2,50.2,28.82,SW,228,0.0,0.0,100,0.00,,---,0.00,VWS V14.01,2013-04-29 09:10:00,
2013-04-29 04:15:00,50.2,50.2,28.85,SW,228,0.0,0.0,100,0.00,,---,0.00,VWS V14.01,2013-04-29 09:15:00,
2013-04-29 04:20:00,50.4,50.4,28.85,West,261,0.0,0.0,100,0.00,,---,0.00,VWS V14.01,2013-04-29 09:20:00,
2013-04-29 04:25:00,50.4,50.4,28.85,WSW,257,0.0,0.0,100,0.00,,---,0.00,VWS V14.01,2013-04-29 09:25:00,
2013-04-29 04:30:00,50.7,50.7,28.82,SW,227,0.0,0.0,100,0.00,,---,0.00,VWS V14.01,2013-04-29 09:30:00,
2013-04-29 04:35:00,50.7,50.7,28.82,SW,226,0.0,0.0,100,0.00,,---,0.00,VWS V14.01,2013-04-29 09:35:00,
2013-04-29 04:40:00,50.7,50.7,28.82,SW,226,0.0,0.0,100,0.00,,---,0.00,VWS V14.01,2013-04-29 09:40:00,
2013-04-29 04:45:00,50.5,50.5,28.82,SW,226,0.0,0.0,100,0.00,,---,0.00,VWS V14.01,2013-04-29 09:45:00,
2013-04-29 04:50:00,50.4,50.4,28.82,SW,226,0.0,0.0,100,0.00,,---,0.00,VWS V14.01,2013-04-29 09:50:00,
2013-04-29 04:55:00,50.2,50.2,28.82,SW,226,0.0,0.0,100,0.00,,---,0.00,VWS V14.01,2013-04-29 09:55:00,
2013-04-29 05:00:00,50.0,50.0,28.82,SW,226,0.0,0.0,100,0.00,,---,0.00,VWS V14.01,2013-04-29 10:00:00,
2013-04-29 05:05:00,50.0,50.0,28.82,SW,226,0.0,0.0,100,0.00,,---,0.00,VWS V14.01,2013-04-29 10:05:00,
2013-04-29 05:10:00,49.8,49.8,28.82,SW,226,0.0,0.0,100,0.00,,---,0.00,VWS V14.01,2013-04-29 10:10:00,
2013-04-29 05:15:00,50.0,50.0,28.82,SW,226,0.0,0.0,100,0.00,,---,0.00,VWS V14.01,2013-04-29 10:15:00,
2013-04-29 05:20:00,49.8,49.8,28.82,SW,226,0.0,0.0,100,0.00,,---,0.00,VWS V14.01,2013-04-29 10:20:00,
2013-04-29 05:25:00,49.8,49.8,28.82,SW,226,0.0,0.0,100,0.00,,---,0.00,VWS V14.01,2013-04-29 10:25:00,
2013-04-29 05:30:00,50.0,50.0,28.82,SW,226,0.0,0.0,100,0.00,,---,0.00,VWS V14.01,2013-04-29 10:30:00,
2013-04-29 05:35:00,50.2,50.2,28.82,SW,226,0.0,0.0,100,0.00,,---,0.00,VWS V14.01,2013-04-29 10:35:00,
2013-04-29 05:40:00,50.0,50.0,28.82,SW,226,0.0,0.0,100,0.00,,---,0.00,VWS V14.01,2013-04-29 10:40:00,
2013-04-29 05:45:00,50.0,50.0,28.82,SW,226,0.0,0.0,100,0.00,,---,0.00,VWS V14.01,2013-04-29 10:45:00,
2013-04-29 05:50:00,50.0,50.0,28.82,SW,226,0.0,0.0,100,0.00,,---,0.00,VWS V14.01,2013-04-29 10:50:00,
2013-04-29 05:55:00,49.8,49.8,28.82,SW,226,0.0,0.0,100,0.00,,---,0.00,VWS V14.01,2013-04-29 10:55:00,
2013-04-29 06:00:00,49.8,49.8,28.82,SW,226,0.0,0.0,100,0.00,,---,0.00,VWS V14.01,2013-04-29 11:00:00,
2013-04-29 06:05:00,49.8,49.8,28.82,NNE,28,0.0,0.0,100,0.00,,---,0.00,VWS V14.01,2013-04-29 11:05:00,
2013-04-29 06:10:00,50.0,50.0,28.82,NNE,33,0.0,0.0,100,0.00,,---,0.00,VWS V14.01,2013-04-29 11:10:00,
2013-04-29 06:15:00,49.8,49.8,28.82,NNE,33,0.0,0.0,100,0.00,,---,0.00,VWS V14.01,2013-04-29 11:15:00,
2013-04-29 06:20:00,49.8,49.8,28.82,NNE,33,0.0,0.0,100,0.00,,---,0.00,VWS V14.01,2013-04-29 11:20:00,
2013-04-29 06:24:00,49.8,49.8,28.82,NNE,33,0.0,0.0,100,0.00,,---,0.00,VWS V14.01,2013-04-29 11:24:00,
2013-04-29 06:29:00,49.8,49.8,28.82,WNW,298,0.0,0.0,100,0.00,,---,0.00,VWS V14.01,2013-04-29 11:29:00,
2013-04-29 06:34:00,49.8,49.8,28.82,WNW,298,0.0,0.0,100,0.00,,---,0.00,VWS V14.01,2013-04-29 11:34:00,
2013-04-29 06:39:00,49.8,49.8,28.82,WNW,298,0.0,0.0,100,0.00,,---,0.00,VWS V14.01,2013-04-29 11:39:00,
2013-04-29 06:44:00,49.8,49.8,28.82,WNW,298,0.0,0.0,100,0.00,,---,0.00,VWS V14.01,2013-04-29 11:44:00,
2013-04-29 06:49:00,49.8,49.8,28.82,WNW,298,0.0,0.0,100,0.00,,---,0.00,VWS V14.01,2013-04-29 11:49:00,
2013-04-29 06:54:00,49.8,49.8,28.82,WNW,298,0.0,0.0,100,0.00,,---,0.00,VWS V14.01,2013-04-29 11:54:00,
2013-04-29 06:59:00,50.0,50.0,28.82,WNW,298,0.0,0.0,100,0.00,,---,0.00,VWS V14.01,2013-04-29 11:59:00,
2013-04-29 07:04:00,50.2,50.2,28.82,WNW,298,0.0,0.0,100,0.00,,---,0.00,VWS V14.01,2013-04-29 12:04:00,
2013-04-29 07:09:00,50.2,50.2,28.82,WNW,298,0.0,0.0,100,0.00,,---,0.00,VWS V14.01,2013-04-29 12:09:00,
2013-04-29 07:14:00,50.2,50.2,28.82,WNW,298,0.0,0.0,100,0.00,,---,0.00,VWS V14.01,2013-04-29 12:14:00,
2013-04-29 07:19:00,50.4,50.4,28.82,WNW,298,0.0,0.0,100,0.00,,---,0.00,VWS V14.01,2013-04-29 12:19:00,
2013-04-29 07:24:00,50.4,50.4,28.82,WNW,298,0.0,0.0,100,0.00,,---,0.00,VWS V14.01,2013-04-29 12:24:00,
2013-04-29 07:29:00,50.5,50.5,28.82,WNW,298,0.0,0.0,100,0.00,,---,0.00,VWS V14.01,2013-04-29 12:29:00,
2013-04-29 07:34:00,50.5,50.5,28.82,WNW,298,0.0,0.0,100,0.00,,---,0.00,VWS V14.01,2013-04-29 12:34:00,
2013-04-29 07:39:00,50.7,50.7,28.82,WNW,298,0.0,0.0,100,0.00,,---,0.00,VWS V14.01,2013-04-29 12:39:00,
2013-04-29 07:44:00,50.7,50.7,28.82,WNW,298,0.0,0.0,100,0.00,,---,0.00,VWS V14.01,2013-04-29 12:44:00,
2013-04-29 07:49:00,51.1,51.1,28.82,WNW,298,0.0,0.0,100,0.00,,---,0.00,VWS V14.01,2013-04-29 12:49:00,
2013-04-29 07:54:00,51.3,51.3,28.82,WNW,298,0.0,0.0,100,0.00,,---,0.00,VWS V14.01,2013-04-29 12:54:00,
2013-04-29 07:59:00,51.4,51.4,28.82,WNW,298,0.0,0.0,100,0.00,,---,0.00,VWS V14.01,2013-04-29 12:59:00,
2013-04-29 08:04:00,51.4,51.4,28.82,WNW,298,0.0,0.0,100,0.00,,---,0.00,VWS V14.01,2013-04-29 13:04:00,
2013-04-29 08:09:00,51.4,51.4,28.82,NNW,338,0.0,0.0,100,0.00,,---,0.00,VWS V14.01,2013-04-29 13:09:00,
2013-04-29 08:14:00,51.6,51.6,28.82,NNW,337,0.0,0.0,100,0.00,,---,0.00,VWS V14.01,2013-04-29 13:14:00,
2013-04-29 08:19:00,51.8,51.8,28.82,NNW,337,0.0,0.0,100,0.00,,---,0.00,VWS V14.01,2013-04-29 13:19:00,
2013-04-29 08:24:00,51.8,51.8,28.82,NNW,337,0.0,0.0,100,0.00,,---,0.00,VWS V14.01,2013-04-29 13:24:00,
2013-04-29 08:29:00,51.8,51.8,28.82,NNW,337,0.0,0.0,100,0.00,,---,0.00,VWS V14.01,2013-04-29 13:29:00,
2013-04-29 08:34:00,52.0,52.0,28.82,NNW,337,0.0,0.0,100,0.00,,---,0.00,VWS V14.01,2013-04-29 13:34:00,
2013-04-29 08:39:00,52.0,52.0,28.82,NNW,337,0.0,0.0,100,0.00,,---,0.00,VWS V14.01,2013-04-29 13:39:00,
2013-04-29 08:44:00,52.0,52.0,28.82,NNW,337,0.0,0.0,100,0.00,,---,0.00,VWS V14.01,2013-04-29 13:44:00,
2013-04-29 08:49:00,52.0,52.0,28.82,NW,311,0.0,0.0,100,0.00,,---,0.00,VWS V14.01,2013-04-29 13:49:00,
2013-04-29 08:54:00,52.0,52.0,28.82,NW,311,0.0,0.0,100,0.00,,---,0.00,VWS V14.01,2013-04-29 13:54:00,
2013-04-29 08:59:00,52.0,52.0,28.82,NW,311,0.0,0.0,100,0.00,,---,0.00,VWS V14.01,2013-04-29 13:59:00,
2013-04-29 09:04:00,52.2,52.2,28.82,NW,311,0.0,0.0,100,0.00,,---,0.00,VWS V14.01,2013-04-29 14:04:00,
2013-04-29 09:09:00,52.2,52.2,28.82,NW,311,0.0,0.0,100,0.00,,---,0.00,VWS V14.01,2013-04-29 14:09:00,
2013-04-29 09:14:00,52.3,52.3,28.82,NW,311,0.0,0.0,100,0.00,,---,0.00,VWS V14.01,2013-04-29 14:14:00,
2013-04-29 09:19:00,52.3,52.3,28.82,NW,311,0.0,0.0,100,0.00,,---,0.00,VWS V14.01,2013-04-29 14:19:00,
2013-04-29 09:24:00,52.7,52.7,28.82,NW,320,2.2,2.2,100,0.00,,---,0.00,VWS V14.01,2013-04-29 14:24:00,
2013-04-29 09:29:00,53.1,53.1,28.82,NNW,343,0.0,0.0,100,0.00,,---,0.00,VWS V14.01,2013-04-29 14:29:00,
2013-04-29 09:34:00,53.1,53.1,28.82,North,8,0.0,0.0,100,0.00,,---,0.00,VWS V14.01,2013-04-29 14:34:00,
2013-04-29 09:39:00,53.2,53.2,28.82,North,8,0.0,0.0,100,0.00,,---,0.00,VWS V14.01,2013-04-29 14:39:00,
2013-04-29 09:44:00,53.4,53.4,28.82,North,8,0.0,0.0,100,0.00,,---,0.00,VWS V14.01,2013-04-29 14:44:00,
2013-04-29 09:49:00,53.8,53.8,28.82,North,8,0.0,0.0,100,0.00,,---,0.00,VWS V14.01,2013-04-29 14:49:00,
2013-04-29 09:54:00,54.1,54.1,28.82,North,8,0.0,0.0,100,0.00,,---,0.00,VWS V14.01,2013-04-29 14:54:00,
2013-04-29 09:59:00,54.7,54.7,28.82,ENE,74,0.0,0.0,100,0.00,,---,0.00,VWS V14.01,2013-04-29 14:59:00,
2013-04-29 10:04:00,55.2,55.2,28.82,ENE,77,0.0,0.0,100,0.00,,---,0.00,VWS V14.01,2013-04-29 15:04:00,
2013-04-29 10:09:00,56.7,56.7,28.82,East,101,3.1,3.1,100,0.00,,---,0.00,VWS V14.01,2013-04-29 15:09:00,
2013-04-29 10:14:00,57.9,57.9,28.82,ENE,71,2.7,2.7,100,0.00,,---,0.00,VWS V14.01,2013-04-29 15:14:00,
2013-04-29 10:19:00,59.4,59.4,28.82,East,85,4.5,4.5,100,0.00,,---,0.00,VWS V14.01,2013-04-29 15:19:00,
2013-04-29 10:24:00,60.6,60.6,28.82,ENE,69,4.0,4.0,100,0.00,,---,0.00,VWS V14.01,2013-04-29 15:24:00,
2013-04-29 10:29:00,61.9,61.9,28.82,NE,51,4.0,4.0,100,0.00,,---,0.00,VWS V14.01,2013-04-29 15:29:00,
2013-04-29 10:34:00,62.1,62.1,28.82,NW,321,0.0,0.0,100,0.00,,---,0.00,VWS V14.01,2013-04-29 15:34:00,
2013-04-29 10:39:00,62.8,62.8,28.82,ENE,66,0.0,2.7,100,0.00,,---,0.00,VWS V14.01,2013-04-29 15:39:00,
2013-04-29 10:44:00,63.3,63.3,28.82,ENE,69,5.4,5.4,100,0.00,,---,0.00,VWS V14.01,2013-04-29 15:44:00,
2013-04-29 10:49:00,63.9,63.9,28.82,WNW,292,0.0,0.0,100,0.00,,---,0.00,VWS V14.01,2013-04-29 15:49:00,
2013-04-29 10:54:00,64.0,60.1,28.82,West,270,5.4,5.4,87,0.00,,---,0.00,VWS V14.01,2013-04-29 15:54:00,
2013-04-29 10:59:00,64.2,59.3,28.82,West,260,4.0,4.0,84,0.00,,---,0.00,VWS V14.01,2013-04-29 15:59:00,
2013-04-29 11:04:00,64.8,56.7,28.82,SW,231,0.0,0.0,75,0.00,,---,0.00,VWS V14.01,2013-04-29 16:04:00,
2013-04-29 11:09:00,65.1,55.9,28.82,WNW,300,3.1,3.1,72,0.00,,---,0.00,VWS V14.01,2013-04-29 16:09:00,
2013-04-29 11:14:00,66.0,56.7,28.82,North,3,2.7,4.0,72,0.00,,---,0.00,VWS V14.01,2013-04-29 16:14:00,
2013-04-29 11:19:00,67.1,48.4,28.82,SSW,203,5.4,7.6,51,0.00,,---,0.00,VWS V14.01,2013-04-29 16:19:00,
2013-04-29 11:24:00,66.9,44.9,28.82,South,173,4.0,4.0,45,0.00,,---,0.00,VWS V14.01,2013-04-29 16:24:00,
2013-04-29 11:29:00,67.3,48.5,28.82,SSW,203,4.0,4.0,51,0.00,,---,0.00,VWS V14.01,2013-04-29 16:29:00,
2013-04-29 11:34:00,67.5,45.4,28.82,SW,217,4.0,4.0,45,0.00,,---,0.00,VWS V14.01,2013-04-29 16:34:00,
2013-04-29 11:39:00,67.6,45.6,28.82,WNW,301,3.6,4.9,45,0.00,,---,0.00,VWS V14.01,2013-04-29 16:39:00,
2013-04-29 11:44:00,68.4,46.2,28.82,West,277,3.1,3.1,45,0.00,,---,0.00,VWS V14.01,2013-04-29 16:44:00,
2013-04-29 11:49:00,68.5,46.4,28.82,WSW,251,3.1,3.1,45,0.00,,---,0.00,VWS V14.01,2013-04-29 16:49:00,
2013-04-29 11:54:00,68.5,46.4,28.82,SW,224,6.3,8.3,45,0.00,,---,0.00,VWS V14.01,2013-04-29 16:54:00,
2013-04-29 11:58:00,69.1,46.9,28.82,SSW,210,3.1,5.4,45,0.00,,---,0.00,VWS V14.01,2013-04-29 16:58:00,
2013-04-29 12:03:00,69.8,45.7,28.82,SSW,195,3.1,8.3,42,0.00,,---,0.00,VWS V14.01,2013-04-29 17:03:00,
2013-04-29 12:08:00,70.2,46.0,28.82,SW,214,5.4,6.3,42,0.00,,---,0.00,VWS V14.01,2013-04-29 17:08:00,
2013-04-29 12:13:00,69.3,41.2,28.82,WNW,295,5.4,7.2,36,0.00,,---,0.00,VWS V14.01,2013-04-29 17:13:00,
2013-04-29 12:18:00,69.1,41.0,28.82,West,272,3.6,6.3,36,0.00,,---,0.00,VWS V14.01,2013-04-29 17:18:00,
2013-04-29 12:23:00,69.1,41.0,28.82,SW,234,3.1,6.3,36,0.00,,---,0.00,VWS V14.01,2013-04-29 17:23:00,
2013-04-29 12:28:00,69.3,47.0,28.82,SW,225,8.1,8.1,45,0.00,,---,0.00,VWS V14.01,2013-04-29 17:28:00,
2013-04-29 12:33:00,69.3,47.0,28.82,WSW,255,9.6,9.6,45,0.00,,---,0.00,VWS V14.01,2013-04-29 17:33:00,
2013-04-29 12:38:00,70.2,46.0,28.82,SE,130,3.6,4.0,42,0.00,,---,0.00,VWS V14.01,2013-04-29 17:38:00,
2013-04-29 12:43:00,70.3,46.2,28.82,SSW,204,4.9,4.9,42,0.00,,---,0.00,VWS V14.01,2013-04-29 17:43:00,
2013-04-29 12:48:00,70.0,45.9,28.82,SSE,149,2.7,4.0,42,0.00,,---,0.00,VWS V14.01,2013-04-29 17:48:00,
2013-04-29 12:53:00,69.8,45.7,28.82,East,96,5.4,5.4,42,0.00,,---,0.00,VWS V14.01,2013-04-29 17:53:00,
2013-04-29 12:58:00,70.2,46.0,28.82,SW,226,4.0,6.3,42,0.00,,---,0.00,VWS V14.01,2013-04-29 17:58:00,
2013-04-29 13:03:00,70.2,46.0,28.82,SE,125,5.4,6.3,42,0.00,,---,0.00,VWS V14.01,2013-04-29 18:03:00,
2013-04-29 13:08:00,70.2,46.0,28.82,SW,223,3.1,5.4,42,0.00,,---,0.00,VWS V14.01,2013-04-29 18:08:00,
2013-04-29 13:13:00,70.0,45.9,28.82,West,268,4.0,4.0,42,0.00,,---,0.00,VWS V14.01,2013-04-29 18:13:00,
2013-04-29 13:18:00,71.1,46.8,28.79,NNE,18,2.2,3.6,42,0.00,,---,0.00,VWS V14.01,2013-04-29 18:18:00,
2013-04-29 13:23:00,71.6,41.0,28.79,SE,145,3.1,3.1,33,0.00,,---,0.00,VWS V14.01,2013-04-29 18:23:00,
2013-04-29 13:28:00,71.1,42.8,28.79,SSW,210,0.0,4.0,36,0.00,,---,0.00,VWS V14.01,2013-04-29 18:28:00,
2013-04-29 13:33:00,70.9,42.6,28.79,NW,319,0.0,3.6,36,0.00,,---,0.00,VWS V14.01,2013-04-29 18:33:00,
2013-04-29 13:38:00,71.4,43.1,28.79,SE,135,0.0,3.6,36,0.00,,---,0.00,VWS V14.01,2013-04-29 18:38:00,
2013-04-29 13:43:00,71.6,41.0,28.79,WSW,240,4.0,5.4,33,0.00,,---,0.00,VWS V14.01,2013-04-29 18:43:00,
2013-04-29 13:48:00,71.4,43.1,28.79,West,271,0.0,0.0,36,0.00,,---,0.00,VWS V14.01,2013-04-29 18:48:00,
2013-04-29 13:53:00,71.6,41.0,28.79,NNW,343,3.6,3.6,33,0.00,,---,0.00,VWS V14.01,2013-04-29 18:53:00,
2013-04-29 13:58:00,71.1,42.8,28.79,North,7,2.7,3.1,36,0.00,,---,0.00,VWS V14.01,2013-04-29 18:58:00,
2013-04-29 14:03:00,71.4,43.1,28.79,NNE,14,3.1,5.8,36,0.00,,---,0.00,VWS V14.01,2013-04-29 19:03:00,
2013-04-29 14:08:00,72.0,41.3,28.79,WSW,242,3.1,4.0,33,0.00,,---,0.00,VWS V14.01,2013-04-29 19:08:00,
2013-04-29 14:13:00,72.5,41.8,28.79,SSE,149,4.5,4.5,33,0.00,,---,0.00,VWS V14.01,2013-04-29 19:13:00,
2013-04-29 14:18:00,72.5,41.8,28.79,SW,215,6.3,6.3,33,0.00,,---,0.00,VWS V14.01,2013-04-29 19:18:00,
2013-04-29 14:23:00,72.7,42.0,28.79,WSW,253,6.3,8.1,33,0.00,,---,0.00,VWS V14.01,2013-04-29 19:23:00,
2013-04-29 14:28:00,72.7,42.0,28.79,West,271,4.0,5.4,33,0.00,,---,0.00,VWS V14.01,2013-04-29 19:28:00,
2013-04-29 14:33:00,71.8,41.2,28.79,WSW,245,4.9,5.8,33,0.00,,---,0.00,VWS V14.01,2013-04-29 19:33:00,
2013-04-29 14:38:00,72.9,42.1,28.79,South,174,4.9,4.9,33,0.00,,---,0.00,VWS V14.01,2013-04-29 19:38:00,
2013-04-29 14:43:00,72.7,42.0,28.79,NW,324,2.2,5.8,33,0.00,,---,0.00,VWS V14.01,2013-04-29 19:43:00,
2013-04-29 14:48:00,73.8,42.9,28.79,SSW,211,0.0,4.0,33,0.00,,---,0.00,VWS V14.01,2013-04-29 19:48:00,
2013-04-29 14:53:00,74.1,43.2,28.79,East,99,2.7,3.1,33,0.00,,---,0.00,VWS V14.01,2013-04-29 19:53:00,
2013-04-29 14:58:00,73.2,42.4,28.79,NNE,29,2.7,2.7,33,0.00,,---,0.00,VWS V14.01,2013-04-29 19:58:00,
2013-04-29 15:03:00,73.2,42.4,28.79,West,265,4.0,4.0,33,0.00,,---,0.00,VWS V14.01,2013-04-29 20:03:00,
2013-04-29 15:08:00,73.4,42.6,28.79,SSW,193,5.4,5.4,33,0.00,,---,0.00,VWS V14.01,2013-04-29 20:08:00,
2013-04-29 15:13:00,73.2,42.4,28.79,WSW,244,5.4,5.4,33,0.00,,---,0.00,VWS V14.01,2013-04-29 20:13:00,
2013-04-29 15:18:00,72.5,41.8,28.76,SSW,197,7.2,7.2,33,0.00,,---,0.00,VWS V14.01,2013-04-29 20:18:00,
2013-04-29 15:23:00,72.9,42.1,28.76,NE,46,2.2,4.0,33,0.00,,---,0.00,VWS V14.01,2013-04-29 20:23:00,
2013-04-29 15:28:00,72.7,42.0,28.76,WSW,241,3.6,3.6,33,0.00,,---,0.00,VWS V14.01,2013-04-29 20:28:00,
2013-04-29 15:33:00,72.5,41.8,28.76,SW,226,10.5,10.5,33,0.00,,---,0.00,VWS V14.01,2013-04-29 20:33:00,
2013-04-29 15:38:00,71.6,41.0,28.76,WSW,240,0.0,2.2,33,0.00,,---,0.00,VWS V14.01,2013-04-29 20:38:00,
2013-04-29 15:43:00,71.8,41.2,28.76,East,82,7.6,7.6,33,0.00,,---,0.00,VWS V14.01,2013-04-29 20:43:00,
2013-04-29 15:48:00,72.3,41.6,28.76,SE,145,6.7,6.7,33,0.00,,---,0.00,VWS V14.01,2013-04-29 20:48:00,
2013-04-29 15:53:00,72.5,41.8,28.76,East,84,2.7,5.4,33,0.00,,---,0.00,VWS V14.01,2013-04-29 20:53:00,
2013-04-29 15:58:00,73.2,42.4,28.76,SW,226,2.7,3.6,33,0.00,,---,0.00,VWS V14.01,2013-04-29 20:58:00,
2013-04-29 16:03:00,73.2,42.4,28.76,SSW,202,5.4,5.4,33,0.00,,---,0.00,VWS V14.01,2013-04-29 21:03:00,
2013-04-29 16:08:00,72.7,42.0,28.76,WSW,252,6.7,7.6,33,0.00,,---,0.00,VWS V14.01,2013-04-29 21:08:00,
2013-04-29 16:13:00,72.3,41.6,28.76,WNW,288,8.3,8.3,33,0.00,,---,0.00,VWS V14.01,2013-04-29 21:13:00,
2013-04-29 16:18:00,72.1,41.5,28.76,SW,233,2.2,3.1,33,0.00,,---,0.00,VWS V14.01,2013-04-29 21:18:00,
2013-04-29 16:23:00,71.6,41.0,28.76,West,273,3.1,5.4,33,0.00,,---,0.00,VWS V14.01,2013-04-29 21:23:00,
2013-04-29 16:28:00,71.2,42.9,28.76,West,279,3.6,4.0,36,0.00,,---,0.00,VWS V14.01,2013-04-29 21:28:00,
2013-04-29 16:33:00,71.1,42.8,28.76,NW,321,3.6,4.0,36,0.00,,---,0.00,VWS V14.01,2013-04-29 21:33:00,
2013-04-29 16:38:00,70.7,42.5,28.76,NW,310,6.3,6.3,36,0.00,,---,0.00,VWS V14.01,2013-04-29 21:38:00,
2013-04-29 16:43:00,70.2,42.0,28.76,SSW,213,6.3,6.3,36,0.00,,---,0.00,VWS V14.01,2013-04-29 21:43:00,
2013-04-29 16:48:00,70.0,41.8,28.76,WSW,248,5.4,5.8,36,0.00,,---,0.00,VWS V14.01,2013-04-29 21:48:00,
2013-04-29 16:53:00,70.2,42.0,28.76,ENE,66,0.0,0.0,36,0.00,,---,0.00,VWS V14.01,2013-04-29 21:53:00,
2013-04-29 16:58:00,70.5,42.3,28.76,ENE,74,4.9,5.4,36,0.00,,---,0.00,VWS V14.01,2013-04-29 21:58:00,
2013-04-29 17:03:00,71.1,46.8,28.76,SSE,156,5.4,5.4,42,0.00,,---,0.00,VWS V14.01,2013-04-29 22:03:00,
2013-04-29 17:08:00,71.4,43.1,28.76,ENE,58,5.4,5.4,36,0.00,,---,0.00,VWS V14.01,2013-04-29 22:08:00,
2013-04-29 17:13:00,71.2,42.9,28.76,SE,136,4.0,4.0,36,0.00,,---,0.00,VWS V14.01,2013-04-29 22:13:00,
2013-04-29 17:18:00,71.8,41.2,28.76,SSW,213,0.0,0.0,33,0.00,,---,0.00,VWS V14.01,2013-04-29 22:18:00,
2013-04-29 17:23:00,71.8,41.2,28.76,SW,222,3.1,3.1,33,0.00,,---,0.00,VWS V14.01,2013-04-29 22:23:00,
2013-04-29 17:28:00,71.6,41.0,28.76,SSE,158,5.4,5.4,33,0.00,,---,0.00,VWS V14.01,2013-04-29 22:28:00,
2013-04-29 17:33:00,71.8,41.2,28.73,SW,227,4.0,4.0,33,0.00,,---,0.00,VWS V14.01,2013-04-29 22:33:00,
2013-04-29 17:38:00,71.8,41.2,28.73,West,277,2.7,2.7,33,0.00,,---,0.00,VWS V14.01,2013-04-29 22:38:00,
2013-04-29 17:43:00,72.0,41.3,28.73,SE,141,8.7,8.7,33,0.00,,---,0.00,VWS V14.01,2013-04-29 22:43:00,
2013-04-29 17:48:00,72.3,41.6,28.73,NNE,24,0.0,0.0,33,0.00,,---,0.00,VWS V14.01,2013-04-29 22:48:00,
2013-04-29 17:53:00,72.7,42.0,28.73,South,191,3.6,3.6,33,0.00,,---,0.00,VWS V14.01,2013-04-29 22:53:00,
2013-04-29 17:58:00,72.5,41.8,28.73,ESE,108,3.1,3.1,33,0.00,,---,0.00,VWS V14.01,2013-04-29 22:58:00,
2013-04-29 18:03:00,71.8,41.2,28.76,NW,308,3.1,4.0,33,0.00,,---,0.00,VWS V14.01,2013-04-29 23:03:00,
2013-04-29 18:08:00,71.1,42.8,28.76,SW,226,5.4,8.3,36,0.00,,---,0.00,VWS V14.01,2013-04-29 23:08:00,
2013-04-29 18:13:00,70.3,42.2,28.76,SW,216,2.7,2.7,36,0.00,,---,0.00,VWS V14.01,2013-04-29 23:13:00,
2013-04-29 18:18:00,69.6,41.5,28.76,SW,222,0.0,3.1,36,0.00,,---,0.00,VWS V14.01,2013-04-29 23:18:00,
2013-04-29 18:23:00,69.3,41.2,28.76,SW,236,5.4,5.4,36,0.00,,---,0.00,VWS V14.01,2013-04-29 23:23:00,
2013-04-29 18:28:00,69.3,41.2,28.76,NNE,12,2.2,2.2,36,0.00,,---,0.00,VWS V14.01,2013-04-29 23:28:00,
2013-04-29 18:33:00,69.1,41.0,28.76,SW,226,3.6,3.6,36,0.00,,---,0.00,VWS V14.01,2013-04-29 23:33:00,
2013-04-29 18:38:00,68.9,40.9,28.76,SSW,208,8.3,8.3,36,0.00,,---,0.00,VWS V14.01,2013-04-29 23:38:00,
2013-04-29 18:43:00,68.7,40.7,28.76,West,260,2.2,5.8,36,0.00,,---,0.00,VWS V14.01,2013-04-29 23:43:00,
2013-04-29 18:48:00,68.5,40.5,28.76,West,269,3.1,3.1,36,0.00,,---,0.00,VWS V14.01,2013-04-29 23:48:00,
2013-04-29 18:53:00,67.8,39.9,28.76,WSW,241,5.4,5.4,36,0.00,,---,0.00,VWS V14.01,2013-04-29 23:53:00,
2013-04-29 18:58:00,67.6,39.8,28.76,WSW,247,5.4,6.3,36,0.00,,---,0.00,VWS V14.01,2013-04-29 23:58:00,
2013-04-29 19:02:00,67.5,39.6,28.76,North,6,3.6,6.3,36,0.00,,---,0.00,VWS V14.01,2013-04-30 00:02:00,
2013-04-29 19:07:00,67.1,39.3,28.76,SW,218,5.8,7.6,36,0.00,,---,0.00,VWS V14.01,2013-04-30 00:07:00,
2013-04-29 19:12:00,66.7,39.0,28.76,WSW,258,5.8,5.8,36,0.00,,---,0.00,VWS V14.01,2013-04-30 00:12:00,
2013-04-29 19:17:00,66.6,38.8,28.76,SSW,200,5.8,5.8,36,0.00,,---,0.00,VWS V14.01,2013-04-30 00:17:00,
2013-04-29 19:22:00,66.2,38.5,28.76,SW,215,0.0,4.9,36,0.00,,---,0.00,VWS V14.01,2013-04-30 00:22:00,
2013-04-29 19:27:00,66.0,40.4,28.76,West,274,2.7,2.7,39,0.00,,---,0.00,VWS V14.01,2013-04-30 00:27:00,
2013-04-29 19:32:00,65.7,40.0,28.76,West,259,0.0,3.6,39,0.00,,---,0.00,VWS V14.01,2013-04-30 00:32:00,
2013-04-29 19:37:00,65.1,39.6,28.76,West,280,2.7,2.7,39,0.00,,---,0.00,VWS V14.01,2013-04-30 00:37:00,
2013-04-29 19:42:00,64.8,39.2,28.76,WSW,256,2.7,4.0,39,0.00,,---,0.00,VWS V14.01,2013-04-30 00:42:00,
2013-04-29 19:47:00,64.4,38.9,28.76,West,273,0.0,0.0,39,0.00,,---,0.00,VWS V14.01,2013-04-30 00:47:00,
2013-04-29 19:52:00,64.0,44.0,28.76,SSE,153,2.2,3.1,48,0.00,,---,0.00,VWS V14.01,2013-04-30 00:52:00,
2013-04-29 19:57:00,63.7,43.6,28.76,SSW,213,0.0,0.0,48,0.00,,---,0.00,VWS V14.01,2013-04-30 00:57:00,
2013-04-29 20:02:00,63.5,43.5,28.76,SSW,204,0.0,0.0,48,0.00,,---,0.00,VWS V14.01,2013-04-30 01:02:00,
2013-04-29 20:07:00,63.1,43.2,28.76,SSW,202,0.0,0.0,48,0.00,,---,0.00,VWS V14.01,2013-04-30 01:07:00,
2013-04-29 20:12:00,62.8,42.8,28.76,West,281,0.0,2.2,48,0.00,,---,0.00,VWS V14.01,2013-04-30 01:12:00,
2013-04-29 20:17:00,62.4,42.5,28.76,North,357,2.7,2.7,48,0.00,,---,0.00,VWS V14.01,2013-04-30 01:17:00,
2013-04-29 20:22:00,62.1,42.2,28.76,SW,233,0.0,0.0,48,0.00,,---,0.00,VWS V14.01,2013-04-30 01:22:00,
2013-04-29 20:27:00,62.1,42.2,28.76,NE,42,0.0,0.0,48,0.00,,---,0.00,VWS V14.01,2013-04-30 01:27:00,
2013-04-29 20:32:00,62.1,42.2,28.76,SW,230,2.2,2.7,48,0.00,,---,0.00,VWS V14.01,2013-04-30 01:32:00,
2013-04-29 20:37:00,62.1,42.2,28.76,SE,131,0.0,0.0,48,0.00,,---,0.00,VWS V14.01,2013-04-30 01:37:00,
2013-04-29 20:42:00,61.9,42.0,28.76,East,89,0.0,0.0,48,0.00,,---,0.00,VWS V14.01,2013-04-30 01:42:00,
2013-04-29 20:47:00,61.7,46.3,28.76,North,0,0.0,0.0,57,0.00,,---,0.00,VWS V14.01,2013-04-30 01:47:00,
2013-04-29 20:52:00,61.9,46.5,28.76,SE,136,5.8,5.8,57,0.00,,---,0.00,VWS V14.01,2013-04-30 01:52:00,
2013-04-29 20:57:00,61.7,46.3,28.76,NE,50,0.0,0.0,57,0.00,,---,0.00,VWS V14.01,2013-04-30 01:57:00,
2013-04-29 21:02:00,61.7,46.3,28.76,SSW,197,0.0,0.0,57,0.00,,---,0.00,VWS V14.01,2013-04-30 02:02:00,
2013-04-29 21:07:00,61.5,46.2,28.76,SE,145,0.0,0.0,57,0.00,,---,0.00,VWS V14.01,2013-04-30 02:07:00,
2013-04-29 21:12:00,61.3,46.0,28.76,NW,307,0.0,0.0,57,0.00,,---,0.00,VWS V14.01,2013-04-30 02:12:00,
2013-04-29 21:17:00,61.0,45.7,28.76,ENE,65,0.0,0.0,57,0.00,,---,0.00,VWS V14.01,2013-04-30 02:17:00,
2013-04-29 21:22:00,61.0,48.3,28.76,South,175,0.0,0.0,63,0.00,,---,0.00,VWS V14.01,2013-04-30 02:22:00,
2013-04-29 21:27:00,60.8,48.1,28.76,NE,54,0.0,0.0,63,0.00,,---,0.00,VWS V14.01,2013-04-30 02:27:00,
2013-04-29 21:32:00,60.6,49.2,28.76,East,81,0.0,0.0,66,0.00,,---,0.00,VWS V14.01,2013-04-30 02:32:00,
2013-04-29 21:37:00,60.3,51.2,28.76,East,80,0.0,0.0,72,0.00,,---,0.00,VWS V14.01,2013-04-30 02:37:00,
2013-04-29 21:42:00,59.7,50.7,28.76,East,80,0.0,0.0,72,0.00,,---,0.00,VWS V14.01,2013-04-30 02:42:00,
2013-04-29 21:47:00,59.4,50.3,28.76,East,95,0.0,0.0,72,0.00,,---,0.00,VWS V14.01,2013-04-30 02:47:00,
2013-04-29 21:52:00,59.0,51.1,28.76,NE,38,0.0,0.0,75,0.00,,---,0.00,VWS V14.01,2013-04-30 02:52:00,
2013-04-29 21:57:00,58.8,52.0,28.76,NE,38,0.0,0.0,78,0.00,,---,0.00,VWS V14.01,2013-04-30 02:57:00,
2013-04-29 22:02:00,58.6,51.8,28.76,NE,38,0.0,0.0,78,0.00,,---,0.00,VWS V14.01,2013-04-30 03:02:00,
2013-04-29 22:07:00,58.3,52.5,28.76,NE,38,0.0,0.0,81,0.00,,---,0.00,VWS V14.01,2013-04-30 03:07:00,
2013-04-29 22:12:00,57.7,53.0,28.76,NE,38,0.0,0.0,84,0.00,,---,0.00,VWS V14.01,2013-04-30 03:12:00,
2013-04-29 22:17:00,57.6,53.7,28.76,NE,38,0.0,0.0,87,0.00,,---,0.00,VWS V14.01,2013-04-30 03:17:00,
2013-04-29 22:22:00,57.0,54.1,28.76,NE,38,0.0,0.0,90,0.00,,---,0.00,VWS V14.01,2013-04-30 03:22:00,
2013-04-29 22:27:00,56.8,56.8,28.76,NE,38,0.0,0.0,100,0.00,,---,0.00,VWS V14.01,2013-04-30 03:27:00,
2013-04-29 22:32:00,56.7,56.7,28.76,NE,38,0.0,0.0,100,0.00,,---,0.00,VWS V14.01,2013-04-30 03:32:00,
2013-04-29 22:37:00,56.3,56.3,28.76,NE,38,0.0,0.0,100,0.00,,---,0.00,VWS V14.01,2013-04-30 03:37:00,
2013-04-29 22:42:00,56.1,56.1,28.76,NE,38,0.0,0.0,100,0.00,,---,0.00,VWS V14.01,2013-04-30 03:42:00,
2013-04-29 22:47:00,56.1,56.1,28.73,NE,38,0.0,0.0,100,0.00,,---,0.00,VWS V14.01,2013-04-30 03:47:00,
2013-04-29 22:52:00,55.9,55.9,28.73,NE,38,0.0,0.0,100,0.00,,---,0.00,VWS V14.01,2013-04-30 03:52:00,
2013-04-29 22:57:00,55.8,55.8,28.73,North,2,2.2,3.1,100,0.00,,---,0.00,VWS V14.01,2013-04-30 03:57:00,
2013-04-29 23:01:00,55.6,55.6,28.73,NNW,338,0.0,0.0,100,0.00,,---,0.00,VWS V14.01,2013-04-30 04:01:00,
2013-04-29 23:06:00,55.4,55.4,28.73,NNW,338,0.0,0.0,100,0.00,,---,0.00,VWS V14.01,2013-04-30 04:06:00,
2013-04-29 23:11:00,55.6,55.6,28.73,NNW,338,0.0,0.0,100,0.00,,---,0.00,VWS V14.01,2013-04-30 04:11:00,
2013-04-29 23:16:00,55.8,55.8,28.73,NE,43,0.0,0.0,100,0.00,,---,0.00,VWS V14.01,2013-04-30 04:16:00,
2013-04-29 23:21:00,55.8,55.8,28.73,NE,43,0.0,0.0,100,0.00,,---,0.00,VWS V14.01,2013-04-30 04:21:00,
2013-04-29 23:26:00,55.9,55.9,28.73,NE,34,0.0,0.0,100,0.00,,---,0.00,VWS V14.01,2013-04-30 04:26:00,
2013-04-29 23:31:00,55.9,55.9,28.73,NE,48,0.0,0.0,100,0.00,,---,0.00,VWS V14.01,2013-04-30 04:31:00,
2013-04-29 23:36:00,55.8,55.8,28.73,NE,48,0.0,0.0,100,0.00,,---,0.00,VWS V14.01,2013-04-30 04:36:00,
2013-04-29 23:41:00,55.8,55.8,28.73,NE,44,0.0,0.0,100,0.00,,---,0.00,VWS V14.01,2013-04-30 04:41:00,
2013-04-29 23:46:00,55.9,55.9,28.73,NE,46,0.0,0.0,100,0.00,,---,0.00,VWS V14.01,2013-04-30 04:46:00,
2013-04-29 23:51:00,55.9,55.9,28.73,ENE,74,0.0,0.0,100,0.00,,---,0.00,VWS V14.01,2013-04-30 04:51:00,
2013-04-29 23:56:00,55.8,55.8,28.73,ENE,62,0.0,0.0,100,0.00,,---,0.00,VWS V14.01,2013-04-30 04:56:00,